sensor_id;sensor_type;location;lat;lon;timestamp;P1;durP1;ratioP1;P2;durP2;ratioP2
44973;SDS011;60981;50.720;11.342;2023-05-07T00:00:52;23.58;;;16.35;;
44973;SDS011;60981;50.720;11.342;2023-05-07T00:01:53;24.42;;;16.27;;
44973;SDS011;60981;50.720;11.342;2023-05-07T00:02:55;24.83;;;16.88;;
44973;SDS011;60981;50.720;11.342;2023-05-07T00:03:57;22.05;;;16.23;;
44973;SDS011;60981;50.720;11.342;2023-05-07T00:04:59;22.92;;;16.30;;
44973;SDS011;60981;50.720;11.342;2023-05-07T00:06:01;23.58;;;15.82;;
44973;SDS011;60981;50.720;11.342;2023-05-07T00:07:03;26.75;;;16.70;;
44973;SDS011;60981;50.720;11.342;2023-05-07T00:08:07;23.58;;;15.13;;
44973;SDS011;60981;50.720;11.342;2023-05-07T00:09:09;23.65;;;16.67;;
44973;SDS011;60981;50.720;11.342;2023-05-07T00:10:12;27.10;;;16.42;;
44973;SDS011;60981;50.720;11.342;2023-05-07T00:11:15;24.27;;;17.35;;
44973;SDS011;60981;50.720;11.342;2023-05-07T00:12:17;21.95;;;16.52;;
44973;SDS011;60981;50.720;11.342;2023-05-07T00:13:19;24.38;;;16.45;;
44973;SDS011;60981;50.720;11.342;2023-05-07T00:14:27;25.40;;;16.70;;
44973;SDS011;60981;50.720;11.342;2023-05-07T00:15:29;24.05;;;16.52;;
44973;SDS011;60981;50.720;11.342;2023-05-07T00:16:30;22.52;;;15.20;;
44973;SDS011;60981;50.720;11.342;2023-05-07T00:17:36;24.33;;;15.68;;
44973;SDS011;60981;50.720;11.342;2023-05-07T00:18:38;22.83;;;16.05;;
44973;SDS011;60981;50.720;11.342;2023-05-07T00:19:40;22.23;;;15.82;;
44973;SDS011;60981;50.720;11.342;2023-05-07T00:20:42;22.15;;;14.93;;
44973;SDS011;60981;50.720;11.342;2023-05-07T00:21:46;21.90;;;15.60;;
44973;SDS011;60981;50.720;11.342;2023-05-07T00:22:48;23.33;;;14.65;;
44973;SDS011;60981;50.720;11.342;2023-05-07T00:23:49;24.83;;;16.90;;
44973;SDS011;60981;50.720;11.342;2023-05-07T00:24:51;26.80;;;16.83;;
44973;SDS011;60981;50.720;11.342;2023-05-07T00:25:52;22.58;;;15.85;;
44973;SDS011;60981;50.720;11.342;2023-05-07T00:26:54;24.10;;;16.70;;
44973;SDS011;60981;50.720;11.342;2023-05-07T00:27:56;22.58;;;15.30;;
44973;SDS011;60981;50.720;11.342;2023-05-07T00:28:58;21.52;;;14.98;;
44973;SDS011;60981;50.720;11.342;2023-05-07T00:30:00;25.35;;;16.88;;
44973;SDS011;60981;50.720;11.342;2023-05-07T00:31:05;21.10;;;15.60;;
44973;SDS011;60981;50.720;11.342;2023-05-07T00:32:07;22.45;;;15.63;;
44973;SDS011;60981;50.720;11.342;2023-05-07T00:33:11;24.65;;;16.00;;
44973;SDS011;60981;50.720;11.342;2023-05-07T00:34:13;24.67;;;15.75;;
44973;SDS011;60981;50.720;11.342;2023-05-07T00:35:15;24.33;;;16.38;;
44973;SDS011;60981;50.720;11.342;2023-05-07T00:36:16;23.58;;;16.80;;
44973;SDS011;60981;50.720;11.342;2023-05-07T00:37:18;24.95;;;16.88;;
44973;SDS011;60981;50.720;11.342;2023-05-07T00:38:20;23.80;;;16.20;;
44973;SDS011;60981;50.720;11.342;2023-05-07T00:39:23;24.60;;;16.13;;
44973;SDS011;60981;50.720;11.342;2023-05-07T00:40:27;21.95;;;15.38;;
44973;SDS011;60981;50.720;11.342;2023-05-07T00:41:29;23.60;;;15.88;;
44973;SDS011;60981;50.720;11.342;2023-05-07T00:42:32;26.20;;;16.95;;
44973;SDS011;60981;50.720;11.342;2023-05-07T00:43:34;23.27;;;16.05;;
44973;SDS011;60981;50.720;11.342;2023-05-07T00:44:35;23.05;;;15.90;;
44973;SDS011;60981;50.720;11.342;2023-05-07T00:45:37;24.75;;;16.65;;
44973;SDS011;60981;50.720;11.342;2023-05-07T00:46:39;22.05;;;14.93;;
44973;SDS011;60981;50.720;11.342;2023-05-07T00:47:41;24.77;;;16.13;;
44973;SDS011;60981;50.720;11.342;2023-05-07T00:48:43;24.80;;;16.00;;
44973;SDS011;60981;50.720;11.342;2023-05-07T00:49:44;22.10;;;15.82;;
44973;SDS011;60981;50.720;11.342;2023-05-07T00:50:46;23.75;;;16.67;;
44973;SDS011;60981;50.720;11.342;2023-05-07T00:51:49;22.42;;;15.35;;
44973;SDS011;60981;50.720;11.342;2023-05-07T00:52:51;24.13;;;16.27;;
44973;SDS011;60981;50.720;11.342;2023-05-07T00:53:53;23.27;;;16.02;;
44973;SDS011;60981;50.720;11.342;2023-05-07T00:54:55;23.95;;;16.40;;
44973;SDS011;60981;50.720;11.342;2023-05-07T00:55:56;22.45;;;16.27;;
44973;SDS011;60981;50.720;11.342;2023-05-07T00:56:58;21.75;;;15.55;;
44973;SDS011;60981;50.720;11.342;2023-05-07T00:58:02;22.85;;;15.63;;
44973;SDS011;60981;50.720;11.342;2023-05-07T00:59:04;24.75;;;16.65;;
44973;SDS011;60981;50.720;11.342;2023-05-07T01:00:08;24.27;;;16.38;;
44973;SDS011;60981;50.720;11.342;2023-05-07T01:01:15;24.30;;;14.75;;
44973;SDS011;60981;50.720;11.342;2023-05-07T01:02:18;22.45;;;16.08;;
44973;SDS011;60981;50.720;11.342;2023-05-07T01:03:20;25.10;;;16.70;;
44973;SDS011;60981;50.720;11.342;2023-05-07T01:04:22;23.95;;;15.77;;
44973;SDS011;60981;50.720;11.342;2023-05-07T01:05:25;22.70;;;15.13;;
44973;SDS011;60981;50.720;11.342;2023-05-07T01:06:29;22.15;;;14.73;;
44973;SDS011;60981;50.720;11.342;2023-05-07T01:07:35;24.30;;;16.25;;
44973;SDS011;60981;50.720;11.342;2023-05-07T01:08:38;24.08;;;15.88;;
44973;SDS011;60981;50.720;11.342;2023-05-07T01:09:41;24.00;;;15.57;;
44973;SDS011;60981;50.720;11.342;2023-05-07T01:10:43;23.05;;;15.80;;
44973;SDS011;60981;50.720;11.342;2023-05-07T01:11:46;21.23;;;15.75;;
44973;SDS011;60981;50.720;11.342;2023-05-07T01:12:48;22.98;;;14.98;;
44973;SDS011;60981;50.720;11.342;2023-05-07T01:13:52;23.92;;;16.08;;
44973;SDS011;60981;50.720;11.342;2023-05-07T01:14:54;22.90;;;17.10;;
44973;SDS011;60981;50.720;11.342;2023-05-07T01:15:56;22.73;;;14.88;;
44973;SDS011;60981;50.720;11.342;2023-05-07T01:16:57;23.67;;;15.70;;
44973;SDS011;60981;50.720;11.342;2023-05-07T01:18:02;22.80;;;15.52;;
44973;SDS011;60981;50.720;11.342;2023-05-07T01:19:04;21.77;;;14.52;;
44973;SDS011;60981;50.720;11.342;2023-05-07T01:20:06;23.67;;;15.57;;
44973;SDS011;60981;50.720;11.342;2023-05-07T01:21:08;24.45;;;15.88;;
44973;SDS011;60981;50.720;11.342;2023-05-07T01:22:12;21.83;;;15.02;;
44973;SDS011;60981;50.720;11.342;2023-05-07T01:23:18;26.30;;;16.50;;
44973;SDS011;60981;50.720;11.342;2023-05-07T01:24:19;23.67;;;15.57;;
44973;SDS011;60981;50.720;11.342;2023-05-07T01:25:24;24.67;;;16.27;;
44973;SDS011;60981;50.720;11.342;2023-05-07T01:26:26;24.48;;;16.02;;
44973;SDS011;60981;50.720;11.342;2023-05-07T01:27:28;23.48;;;16.20;;
44973;SDS011;60981;50.720;11.342;2023-05-07T01:28:30;26.90;;;16.25;;
44973;SDS011;60981;50.720;11.342;2023-05-07T01:29:31;25.90;;;15.05;;
44973;SDS011;60981;50.720;11.342;2023-05-07T01:30:33;27.38;;;16.55;;
44973;SDS011;60981;50.720;11.342;2023-05-07T01:31:35;22.33;;;15.88;;
44973;SDS011;60981;50.720;11.342;2023-05-07T01:32:40;26.30;;;16.55;;
44973;SDS011;60981;50.720;11.342;2023-05-07T01:33:44;24.33;;;14.90;;
44973;SDS011;60981;50.720;11.342;2023-05-07T01:34:46;22.08;;;15.00;;
44973;SDS011;60981;50.720;11.342;2023-05-07T01:35:53;28.15;;;16.35;;
44973;SDS011;60981;50.720;11.342;2023-05-07T01:36:55;25.15;;;15.70;;
44973;SDS011;60981;50.720;11.342;2023-05-07T01:38:00;25.58;;;15.88;;
44973;SDS011;60981;50.720;11.342;2023-05-07T01:39:05;23.80;;;15.45;;
44973;SDS011;60981;50.720;11.342;2023-05-07T01:40:08;24.23;;;16.15;;
44973;SDS011;60981;50.720;11.342;2023-05-07T01:41:11;28.85;;;18.25;;
44973;SDS011;60981;50.720;11.342;2023-05-07T01:42:13;26.25;;;16.73;;
44973;SDS011;60981;50.720;11.342;2023-05-07T01:43:15;26.60;;;16.25;;
44973;SDS011;60981;50.720;11.342;2023-05-07T01:44:17;28.13;;;16.98;;
44973;SDS011;60981;50.720;11.342;2023-05-07T01:45:19;25.13;;;16.10;;
44973;SDS011;60981;50.720;11.342;2023-05-07T01:46:21;22.65;;;16.00;;
44973;SDS011;60981;50.720;11.342;2023-05-07T01:47:23;24.25;;;15.65;;
44973;SDS011;60981;50.720;11.342;2023-05-07T01:48:25;22.73;;;14.68;;
44973;SDS011;60981;50.720;11.342;2023-05-07T01:49:27;25.40;;;16.25;;
44973;SDS011;60981;50.720;11.342;2023-05-07T01:50:29;22.83;;;15.13;;
44973;SDS011;60981;50.720;11.342;2023-05-07T01:51:32;23.48;;;16.10;;
44973;SDS011;60981;50.720;11.342;2023-05-07T01:52:34;25.02;;;15.80;;
44973;SDS011;60981;50.720;11.342;2023-05-07T01:53:36;24.35;;;15.68;;
44973;SDS011;60981;50.720;11.342;2023-05-07T01:54:38;26.08;;;17.10;;
44973;SDS011;60981;50.720;11.342;2023-05-07T01:55:39;25.45;;;16.15;;
44973;SDS011;60981;50.720;11.342;2023-05-07T01:56:41;24.80;;;16.27;;
44973;SDS011;60981;50.720;11.342;2023-05-07T01:57:42;25.63;;;16.67;;
44973;SDS011;60981;50.720;11.342;2023-05-07T01:58:44;23.55;;;15.40;;
44973;SDS011;60981;50.720;11.342;2023-05-07T01:59:50;24.95;;;16.50;;
44973;SDS011;60981;50.720;11.342;2023-05-07T02:00:52;26.42;;;16.88;;
44973;SDS011;60981;50.720;11.342;2023-05-07T02:01:54;27.23;;;16.35;;
44973;SDS011;60981;50.720;11.342;2023-05-07T02:02:56;24.27;;;15.38;;
44973;SDS011;60981;50.720;11.342;2023-05-07T02:03:58;27.25;;;16.35;;
44973;SDS011;60981;50.720;11.342;2023-05-07T02:05:00;26.73;;;16.90;;
44973;SDS011;60981;50.720;11.342;2023-05-07T02:06:04;26.20;;;16.50;;
44973;SDS011;60981;50.720;11.342;2023-05-07T02:07:06;27.20;;;17.85;;
44973;SDS011;60981;50.720;11.342;2023-05-07T02:08:07;26.02;;;16.55;;
44973;SDS011;60981;50.720;11.342;2023-05-07T02:09:09;23.38;;;15.77;;
44973;SDS011;60981;50.720;11.342;2023-05-07T02:10:15;24.52;;;15.88;;
44973;SDS011;60981;50.720;11.342;2023-05-07T02:11:18;26.58;;;15.95;;
44973;SDS011;60981;50.720;11.342;2023-05-07T02:12:19;25.30;;;16.17;;
44973;SDS011;60981;50.720;11.342;2023-05-07T02:13:22;24.42;;;15.60;;
44973;SDS011;60981;50.720;11.342;2023-05-07T02:14:26;24.42;;;16.33;;
44973;SDS011;60981;50.720;11.342;2023-05-07T02:15:28;23.30;;;15.57;;
44973;SDS011;60981;50.720;11.342;2023-05-07T02:16:32;24.17;;;15.63;;
44973;SDS011;60981;50.720;11.342;2023-05-07T02:17:34;24.25;;;16.15;;
44973;SDS011;60981;50.720;11.342;2023-05-07T02:18:38;22.13;;;15.40;;
44973;SDS011;60981;50.720;11.342;2023-05-07T02:19:39;24.13;;;15.48;;
44973;SDS011;60981;50.720;11.342;2023-05-07T02:20:41;24.75;;;16.55;;
44973;SDS011;60981;50.720;11.342;2023-05-07T02:21:43;22.70;;;15.52;;
44973;SDS011;60981;50.720;11.342;2023-05-07T02:22:44;26.85;;;17.15;;
44973;SDS011;60981;50.720;11.342;2023-05-07T02:23:47;24.17;;;16.38;;
44973;SDS011;60981;50.720;11.342;2023-05-07T02:24:49;25.17;;;15.98;;
44973;SDS011;60981;50.720;11.342;2023-05-07T02:25:50;26.75;;;16.95;;
44973;SDS011;60981;50.720;11.342;2023-05-07T02:26:52;25.17;;;16.35;;
44973;SDS011;60981;50.720;11.342;2023-05-07T02:27:54;27.77;;;17.23;;
44973;SDS011;60981;50.720;11.342;2023-05-07T02:28:56;28.02;;;17.73;;
44973;SDS011;60981;50.720;11.342;2023-05-07T02:29:58;28.20;;;16.95;;
44973;SDS011;60981;50.720;11.342;2023-05-07T02:31:02;27.35;;;16.35;;
44973;SDS011;60981;50.720;11.342;2023-05-07T02:32:04;26.27;;;17.48;;
44973;SDS011;60981;50.720;11.342;2023-05-07T02:33:06;25.08;;;15.73;;
44973;SDS011;60981;50.720;11.342;2023-05-07T02:34:11;25.65;;;18.08;;
44973;SDS011;60981;50.720;11.342;2023-05-07T02:35:13;24.77;;;15.77;;
44973;SDS011;60981;50.720;11.342;2023-05-07T02:36:15;26.27;;;16.85;;
44973;SDS011;60981;50.720;11.342;2023-05-07T02:37:16;23.50;;;15.57;;
44973;SDS011;60981;50.720;11.342;2023-05-07T02:38:18;25.27;;;15.23;;
44973;SDS011;60981;50.720;11.342;2023-05-07T02:39:19;21.45;;;15.18;;
44973;SDS011;60981;50.720;11.342;2023-05-07T02:40:22;23.25;;;15.82;;
44973;SDS011;60981;50.720;11.342;2023-05-07T02:41:24;25.50;;;16.45;;
44973;SDS011;60981;50.720;11.342;2023-05-07T02:42:26;23.05;;;15.82;;
44973;SDS011;60981;50.720;11.342;2023-05-07T02:43:28;24.08;;;15.93;;
44973;SDS011;60981;50.720;11.342;2023-05-07T02:44:30;24.25;;;16.00;;
44973;SDS011;60981;50.720;11.342;2023-05-07T02:45:32;22.52;;;15.20;;
44973;SDS011;60981;50.720;11.342;2023-05-07T02:46:34;23.67;;;15.00;;
44973;SDS011;60981;50.720;11.342;2023-05-07T02:47:36;25.10;;;15.23;;
44973;SDS011;60981;50.720;11.342;2023-05-07T02:48:37;25.48;;;15.52;;
44973;SDS011;60981;50.720;11.342;2023-05-07T02:49:41;28.15;;;15.52;;
44973;SDS011;60981;50.720;11.342;2023-05-07T02:50:43;24.42;;;15.50;;
44973;SDS011;60981;50.720;11.342;2023-05-07T02:51:45;27.35;;;16.80;;
44973;SDS011;60981;50.720;11.342;2023-05-07T02:52:47;24.00;;;16.27;;
44973;SDS011;60981;50.720;11.342;2023-05-07T02:53:49;28.88;;;16.40;;
44973;SDS011;60981;50.720;11.342;2023-05-07T02:54:51;23.45;;;15.82;;
44973;SDS011;60981;50.720;11.342;2023-05-07T02:55:57;26.45;;;16.20;;
44973;SDS011;60981;50.720;11.342;2023-05-07T02:56:58;24.63;;;16.08;;
44973;SDS011;60981;50.720;11.342;2023-05-07T02:58:02;24.65;;;16.42;;
44973;SDS011;60981;50.720;11.342;2023-05-07T02:59:04;25.65;;;16.73;;
44973;SDS011;60981;50.720;11.342;2023-05-07T03:00:16;24.33;;;15.55;;
44973;SDS011;60981;50.720;11.342;2023-05-07T03:01:19;27.65;;;16.35;;
44973;SDS011;60981;50.720;11.342;2023-05-07T03:02:22;25.77;;;16.23;;
44973;SDS011;60981;50.720;11.342;2023-05-07T03:03:24;26.45;;;16.83;;
44973;SDS011;60981;50.720;11.342;2023-05-07T03:04:26;26.50;;;16.52;;
44973;SDS011;60981;50.720;11.342;2023-05-07T03:05:28;25.63;;;16.00;;
44973;SDS011;60981;50.720;11.342;2023-05-07T03:06:30;24.45;;;15.40;;
44973;SDS011;60981;50.720;11.342;2023-05-07T03:07:31;24.67;;;15.73;;
44973;SDS011;60981;50.720;11.342;2023-05-07T03:08:33;24.20;;;15.32;;
44973;SDS011;60981;50.720;11.342;2023-05-07T03:09:35;24.92;;;15.98;;
44973;SDS011;60981;50.720;11.342;2023-05-07T03:10:39;26.50;;;16.77;;
44973;SDS011;60981;50.720;11.342;2023-05-07T03:11:44;24.10;;;15.18;;
44973;SDS011;60981;50.720;11.342;2023-05-07T03:12:46;24.48;;;14.90;;
44973;SDS011;60981;50.720;11.342;2023-05-07T03:13:48;24.33;;;15.23;;
44973;SDS011;60981;50.720;11.342;2023-05-07T03:14:55;24.65;;;15.98;;
44973;SDS011;60981;50.720;11.342;2023-05-07T03:15:59;25.48;;;15.38;;
44973;SDS011;60981;50.720;11.342;2023-05-07T03:17:00;25.45;;;16.40;;
44973;SDS011;60981;50.720;11.342;2023-05-07T03:18:03;25.98;;;15.48;;
44973;SDS011;60981;50.720;11.342;2023-05-07T03:19:08;26.38;;;15.85;;
44973;SDS011;60981;50.720;11.342;2023-05-07T03:20:10;26.10;;;15.70;;
44973;SDS011;60981;50.720;11.342;2023-05-07T03:21:14;24.50;;;15.25;;
44973;SDS011;60981;50.720;11.342;2023-05-07T03:22:16;25.52;;;16.27;;
44973;SDS011;60981;50.720;11.342;2023-05-07T03:23:20;25.23;;;15.27;;
44973;SDS011;60981;50.720;11.342;2023-05-07T03:24:25;25.90;;;15.88;;
44973;SDS011;60981;50.720;11.342;2023-05-07T03:25:27;28.20;;;16.05;;
44973;SDS011;60981;50.720;11.342;2023-05-07T03:26:29;25.75;;;16.73;;
44973;SDS011;60981;50.720;11.342;2023-05-07T03:27:31;26.98;;;15.77;;
44973;SDS011;60981;50.720;11.342;2023-05-07T03:28:36;25.52;;;15.82;;
44973;SDS011;60981;50.720;11.342;2023-05-07T03:29:39;25.15;;;15.90;;
44973;SDS011;60981;50.720;11.342;2023-05-07T03:30:41;24.80;;;16.15;;
44973;SDS011;60981;50.720;11.342;2023-05-07T03:31:42;27.63;;;15.73;;
44973;SDS011;60981;50.720;11.342;2023-05-07T03:32:44;25.85;;;15.90;;
44973;SDS011;60981;50.720;11.342;2023-05-07T03:33:53;24.85;;;15.68;;
44973;SDS011;60981;50.720;11.342;2023-05-07T03:34:54;22.08;;;14.85;;
44973;SDS011;60981;50.720;11.342;2023-05-07T03:35:57;25.05;;;16.35;;
44973;SDS011;60981;50.720;11.342;2023-05-07T03:36:58;23.88;;;15.48;;
44973;SDS011;60981;50.720;11.342;2023-05-07T03:38:00;25.23;;;15.77;;
44973;SDS011;60981;50.720;11.342;2023-05-07T03:39:02;24.17;;;14.85;;
44973;SDS011;60981;50.720;11.342;2023-05-07T03:40:04;23.42;;;14.10;;
44973;SDS011;60981;50.720;11.342;2023-05-07T03:41:06;23.02;;;14.45;;
44973;SDS011;60981;50.720;11.342;2023-05-07T03:42:08;23.90;;;15.30;;
44973;SDS011;60981;50.720;11.342;2023-05-07T03:43:10;27.20;;;15.02;;
44973;SDS011;60981;50.720;11.342;2023-05-07T03:44:13;23.95;;;14.55;;
44973;SDS011;60981;50.720;11.342;2023-05-07T03:45:14;22.13;;;14.75;;
44973;SDS011;60981;50.720;11.342;2023-05-07T03:46:16;24.50;;;15.07;;
44973;SDS011;60981;50.720;11.342;2023-05-07T03:47:18;23.75;;;15.35;;
44973;SDS011;60981;50.720;11.342;2023-05-07T03:48:19;21.80;;;14.70;;
44973;SDS011;60981;50.720;11.342;2023-05-07T03:49:21;22.83;;;14.63;;
44973;SDS011;60981;50.720;11.342;2023-05-07T03:50:24;24.08;;;14.80;;
44973;SDS011;60981;50.720;11.342;2023-05-07T03:51:26;21.45;;;14.20;;
44973;SDS011;60981;50.720;11.342;2023-05-07T03:52:28;21.88;;;14.20;;
44973;SDS011;60981;50.720;11.342;2023-05-07T03:53:29;21.58;;;14.05;;
44973;SDS011;60981;50.720;11.342;2023-05-07T03:54:31;23.80;;;14.98;;
44973;SDS011;60981;50.720;11.342;2023-05-07T03:55:33;25.38;;;15.73;;
44973;SDS011;60981;50.720;11.342;2023-05-07T03:56:34;23.92;;;15.20;;
44973;SDS011;60981;50.720;11.342;2023-05-07T03:57:36;22.95;;;14.65;;
44973;SDS011;60981;50.720;11.342;2023-05-07T03:58:38;25.48;;;16.08;;
44973;SDS011;60981;50.720;11.342;2023-05-07T03:59:40;22.67;;;15.07;;
44973;SDS011;60981;50.720;11.342;2023-05-07T04:00:42;21.60;;;14.73;;
44973;SDS011;60981;50.720;11.342;2023-05-07T04:01:43;23.95;;;15.38;;
44973;SDS011;60981;50.720;11.342;2023-05-07T04:02:45;21.30;;;14.20;;
44973;SDS011;60981;50.720;11.342;2023-05-07T04:03:47;20.90;;;13.80;;
44973;SDS011;60981;50.720;11.342;2023-05-07T04:04:49;22.20;;;14.38;;
44973;SDS011;60981;50.720;11.342;2023-05-07T04:05:51;20.58;;;13.52;;
44973;SDS011;60981;50.720;11.342;2023-05-07T04:06:53;22.20;;;14.35;;
44973;SDS011;60981;50.720;11.342;2023-05-07T04:07:55;24.00;;;13.40;;
44973;SDS011;60981;50.720;11.342;2023-05-07T04:08:57;21.27;;;14.55;;
44973;SDS011;60981;50.720;11.342;2023-05-07T04:10:01;21.55;;;13.70;;
44973;SDS011;60981;50.720;11.342;2023-05-07T04:11:03;22.80;;;14.45;;
44973;SDS011;60981;50.720;11.342;2023-05-07T04:12:05;21.20;;;13.65;;
44973;SDS011;60981;50.720;11.342;2023-05-07T04:13:07;23.25;;;15.10;;
44973;SDS011;60981;50.720;11.342;2023-05-07T04:14:09;22.38;;;13.85;;
44973;SDS011;60981;50.720;11.342;2023-05-07T04:15:11;20.80;;;13.85;;
44973;SDS011;60981;50.720;11.342;2023-05-07T04:16:12;24.55;;;14.25;;
44973;SDS011;60981;50.720;11.342;2023-05-07T04:17:14;23.48;;;13.15;;
44973;SDS011;60981;50.720;11.342;2023-05-07T04:18:18;22.45;;;12.65;;
44973;SDS011;60981;50.720;11.342;2023-05-07T04:19:19;20.27;;;13.60;;
44973;SDS011;60981;50.720;11.342;2023-05-07T04:20:21;18.83;;;12.57;;
44973;SDS011;60981;50.720;11.342;2023-05-07T04:21:23;21.73;;;13.23;;
44973;SDS011;60981;50.720;11.342;2023-05-07T04:22:24;22.80;;;14.50;;
44973;SDS011;60981;50.720;11.342;2023-05-07T04:23:26;20.48;;;13.02;;
44973;SDS011;60981;50.720;11.342;2023-05-07T04:24:30;23.00;;;13.15;;
44973;SDS011;60981;50.720;11.342;2023-05-07T04:25:32;20.42;;;12.52;;
44973;SDS011;60981;50.720;11.342;2023-05-07T04:26:34;19.15;;;13.10;;
44973;SDS011;60981;50.720;11.342;2023-05-07T04:27:36;20.52;;;13.32;;
44973;SDS011;60981;50.720;11.342;2023-05-07T04:28:39;20.30;;;12.98;;
44973;SDS011;60981;50.720;11.342;2023-05-07T04:29:40;20.25;;;13.20;;
44973;SDS011;60981;50.720;11.342;2023-05-07T04:30:43;19.73;;;12.38;;
44973;SDS011;60981;50.720;11.342;2023-05-07T04:31:45;19.88;;;12.32;;
44973;SDS011;60981;50.720;11.342;2023-05-07T04:32:47;20.05;;;12.48;;
44973;SDS011;60981;50.720;11.342;2023-05-07T04:33:49;19.13;;;12.20;;
44973;SDS011;60981;50.720;11.342;2023-05-07T04:34:52;20.55;;;13.35;;
44973;SDS011;60981;50.720;11.342;2023-05-07T04:35:53;22.50;;;13.65;;
44973;SDS011;60981;50.720;11.342;2023-05-07T04:36:58;18.52;;;12.82;;
44973;SDS011;60981;50.720;11.342;2023-05-07T04:38:00;21.77;;;13.55;;
44973;SDS011;60981;50.720;11.342;2023-05-07T04:39:02;21.25;;;12.70;;
44973;SDS011;60981;50.720;11.342;2023-05-07T04:40:03;18.23;;;11.68;;
44973;SDS011;60981;50.720;11.342;2023-05-07T04:41:06;20.02;;;12.07;;
44973;SDS011;60981;50.720;11.342;2023-05-07T04:42:07;17.35;;;11.05;;
44973;SDS011;60981;50.720;11.342;2023-05-07T04:43:10;19.25;;;12.00;;
44973;SDS011;60981;50.720;11.342;2023-05-07T04:44:12;19.38;;;12.32;;
44973;SDS011;60981;50.720;11.342;2023-05-07T04:45:14;21.17;;;12.02;;
44973;SDS011;60981;50.720;11.342;2023-05-07T04:46:16;20.88;;;12.68;;
44973;SDS011;60981;50.720;11.342;2023-05-07T04:47:18;19.13;;;12.00;;
44973;SDS011;60981;50.720;11.342;2023-05-07T04:48:19;19.83;;;13.20;;
44973;SDS011;60981;50.720;11.342;2023-05-07T04:49:21;21.20;;;13.48;;
44973;SDS011;60981;50.720;11.342;2023-05-07T04:50:23;22.70;;;12.65;;
44973;SDS011;60981;50.720;11.342;2023-05-07T04:51:26;18.20;;;11.90;;
44973;SDS011;60981;50.720;11.342;2023-05-07T04:52:27;18.75;;;11.98;;
44973;SDS011;60981;50.720;11.342;2023-05-07T04:53:29;19.58;;;12.30;;
44973;SDS011;60981;50.720;11.342;2023-05-07T04:54:31;17.80;;;11.15;;
44973;SDS011;60981;50.720;11.342;2023-05-07T04:55:32;18.88;;;12.07;;
44973;SDS011;60981;50.720;11.342;2023-05-07T04:56:34;18.75;;;12.02;;
44973;SDS011;60981;50.720;11.342;2023-05-07T04:57:39;20.45;;;11.95;;
44973;SDS011;60981;50.720;11.342;2023-05-07T04:58:41;18.50;;;11.77;;
44973;SDS011;60981;50.720;11.342;2023-05-07T04:59:43;16.63;;;10.85;;
44973;SDS011;60981;50.720;11.342;2023-05-07T05:00:45;17.88;;;11.38;;
44973;SDS011;60981;50.720;11.342;2023-05-07T05:01:47;20.02;;;11.13;;
44973;SDS011;60981;50.720;11.342;2023-05-07T05:02:49;21.10;;;12.07;;
44973;SDS011;60981;50.720;11.342;2023-05-07T05:03:51;19.10;;;12.18;;
44973;SDS011;60981;50.720;11.342;2023-05-07T05:04:53;17.23;;;11.05;;
44973;SDS011;60981;50.720;11.342;2023-05-07T05:05:54;19.58;;;11.05;;
44973;SDS011;60981;50.720;11.342;2023-05-07T05:06:56;18.40;;;12.25;;
44973;SDS011;60981;50.720;11.342;2023-05-07T05:07:58;18.38;;;11.05;;
44973;SDS011;60981;50.720;11.342;2023-05-07T05:09:00;19.05;;;11.70;;
44973;SDS011;60981;50.720;11.342;2023-05-07T05:10:02;18.38;;;11.43;;
44973;SDS011;60981;50.720;11.342;2023-05-07T05:11:04;16.30;;;10.57;;
44973;SDS011;60981;50.720;11.342;2023-05-07T05:12:06;17.90;;;11.13;;
44973;SDS011;60981;50.720;11.342;2023-05-07T05:13:09;17.35;;;11.13;;
44973;SDS011;60981;50.720;11.342;2023-05-07T05:14:11;18.60;;;11.73;;
44973;SDS011;60981;50.720;11.342;2023-05-07T05:15:13;15.85;;;10.18;;
44973;SDS011;60981;50.720;11.342;2023-05-07T05:16:15;19.25;;;10.65;;
44973;SDS011;60981;50.720;11.342;2023-05-07T05:17:17;20.95;;;10.57;;
44973;SDS011;60981;50.720;11.342;2023-05-07T05:18:18;16.55;;;10.68;;
44973;SDS011;60981;50.720;11.342;2023-05-07T05:19:20;15.13;;;9.52;;
44973;SDS011;60981;50.720;11.342;2023-05-07T05:20:22;15.95;;;10.30;;
44973;SDS011;60981;50.720;11.342;2023-05-07T05:21:23;17.30;;;10.57;;
44973;SDS011;60981;50.720;11.342;2023-05-07T05:22:25;16.58;;;10.40;;
44973;SDS011;60981;50.720;11.342;2023-05-07T05:23:27;16.80;;;10.25;;
44973;SDS011;60981;50.720;11.342;2023-05-07T05:24:30;15.85;;;9.80;;
44973;SDS011;60981;50.720;11.342;2023-05-07T05:25:31;18.40;;;10.02;;
44973;SDS011;60981;50.720;11.342;2023-05-07T05:26:33;15.20;;;9.00;;
44973;SDS011;60981;50.720;11.342;2023-05-07T05:27:35;16.95;;;9.32;;
44973;SDS011;60981;50.720;11.342;2023-05-07T05:28:38;15.73;;;9.88;;
44973;SDS011;60981;50.720;11.342;2023-05-07T05:29:40;18.85;;;9.60;;
44973;SDS011;60981;50.720;11.342;2023-05-07T05:30:42;16.25;;;10.05;;
44973;SDS011;60981;50.720;11.342;2023-05-07T05:31:44;16.17;;;9.73;;
44973;SDS011;60981;50.720;11.342;2023-05-07T05:32:45;16.42;;;10.07;;
44973;SDS011;60981;50.720;11.342;2023-05-07T05:33:47;17.45;;;10.77;;
44973;SDS011;60981;50.720;11.342;2023-05-07T05:34:49;19.23;;;9.82;;
44973;SDS011;60981;50.720;11.342;2023-05-07T05:35:50;16.40;;;9.73;;
44973;SDS011;60981;50.720;11.342;2023-05-07T05:36:52;15.32;;;8.82;;
44973;SDS011;60981;50.720;11.342;2023-05-07T05:37:54;15.43;;;9.32;;
44973;SDS011;60981;50.720;11.342;2023-05-07T05:38:56;17.50;;;9.73;;
44973;SDS011;60981;50.720;11.342;2023-05-07T05:39:58;14.20;;;8.57;;
44973;SDS011;60981;50.720;11.342;2023-05-07T05:41:02;19.15;;;9.40;;
44973;SDS011;60981;50.720;11.342;2023-05-07T05:42:04;17.63;;;9.50;;
44973;SDS011;60981;50.720;11.342;2023-05-07T05:43:06;16.20;;;9.95;;
44973;SDS011;60981;50.720;11.342;2023-05-07T05:44:07;17.00;;;9.55;;
44973;SDS011;60981;50.720;11.342;2023-05-07T05:45:09;15.73;;;8.90;;
44973;SDS011;60981;50.720;11.342;2023-05-07T05:46:11;17.30;;;9.00;;
44973;SDS011;60981;50.720;11.342;2023-05-07T05:47:13;12.88;;;8.57;;
44973;SDS011;60981;50.720;11.342;2023-05-07T05:48:15;16.08;;;9.65;;
44973;SDS011;60981;50.720;11.342;2023-05-07T05:49:17;16.15;;;9.02;;
44973;SDS011;60981;50.720;11.342;2023-05-07T05:50:18;16.17;;;9.00;;
44973;SDS011;60981;50.720;11.342;2023-05-07T05:51:21;14.77;;;8.95;;
44973;SDS011;60981;50.720;11.342;2023-05-07T05:52:22;16.35;;;8.95;;
44973;SDS011;60981;50.720;11.342;2023-05-07T05:53:25;16.30;;;9.40;;
44973;SDS011;60981;50.720;11.342;2023-05-07T05:54:27;17.10;;;9.32;;
44973;SDS011;60981;50.720;11.342;2023-05-07T05:55:29;14.60;;;9.15;;
44973;SDS011;60981;50.720;11.342;2023-05-07T05:56:31;15.75;;;8.95;;
44973;SDS011;60981;50.720;11.342;2023-05-07T05:57:32;14.68;;;9.40;;
44973;SDS011;60981;50.720;11.342;2023-05-07T05:58:34;15.82;;;9.90;;
44973;SDS011;60981;50.720;11.342;2023-05-07T05:59:36;16.23;;;9.27;;
44973;SDS011;60981;50.720;11.342;2023-05-07T06:00:37;15.27;;;9.15;;